Time;durP1;ratioP1;P1;durP2;ratioP2;P2;SDS_P1;SDS_P2;PMS_P1;PMS_P2;Temp;Humidity;BMP_temperature;BMP_pressure;BME280_temperature;BME280_humidity;BME280_pressure;Samples;Min_cycle;Max_cycle;Signal;HPM_P1;HPM_P2
2022/03/25 00:02:05;;;;;;;16.70;8.45;;;;;;;11.71;31.65;101405.75;4977570;28;20122;-89
2022/03/25 00:04:30;;;;;;;13.90;8.95;;;;;;;11.75;31.55;101405.34;4977524;28;20035;-88
2022/03/25 00:06:56;;;;;;;17.55;9.30;;;;;;;11.63;32.07;101410.97;4978087;28;20035;-89
2022/03/25 00:09:30;;;;;;;16.85;10.10;;;;;;;11.57;31.59;101419.50;4960286;28;20037;-88
2022/03/25 00:11:56;;;;;;;18.77;9.95;;;;;;;11.32;32.12;101411.22;4959322;28;20045;-88
2022/03/25 00:14:22;;;;;;;15.85;9.50;;;;;;;11.05;32.87;101412.97;4960620;28;20035;-89
2022/03/25 00:16:48;;;;;;;15.95;9.30;;;;;;;10.93;32.21;101414.13;4962296;28;20070;-88
2022/03/25 00:19:14;;;;;;;16.73;9.10;;;;;;;10.99;32.32;101406.44;4959876;28;20039;-90
2022/03/25 00:21:43;;;;;;;16.00;8.98;;;;;;;11.05;32.45;101416.47;4984898;28;20050;-88
2022/03/25 00:24:08;;;;;;;18.48;9.05;;;;;;;10.91;32.65;101416.91;4959965;28;20085;-88
2022/03/25 00:26:37;;;;;;;15.50;8.95;;;;;;;10.69;32.79;101412.75;4961782;28;20525;-90
2022/03/25 00:29:02;;;;;;;20.60;8.70;;;;;;;10.50;32.91;101412.78;4977731;28;20043;-89
2022/03/25 00:31:28;;;;;;;23.58;8.20;;;;;;;10.35;33.17;101403.56;4961355;28;20035;-89
2022/03/25 00:33:54;;;;;;;16.35;8.25;;;;;;;10.13;32.86;101403.78;4961378;28;20391;-90
2022/03/25 00:36:23;;;;;;;11.73;7.50;;;;;;;10.14;32.63;101402.88;4960670;28;20054;-90
2022/03/25 00:38:52;;;;;;;12.05;7.65;;;;;;;10.05;32.36;101407.13;4959635;28;20027;-89
2022/03/25 00:41:18;;;;;;;13.48;7.60;;;;;;;10.08;32.32;101406.00;4962435;28;20106;-91
2022/03/25 00:43:47;;;;;;;11.25;7.07;;;;;;;10.24;32.00;101409.00;4964284;28;20129;-89
2022/03/25 00:46:15;;;;;;;11.85;6.13;;;;;;;10.35;31.71;101400.91;4966829;28;20490;-89
2022/03/25 00:48:42;;;;;;;13.68;7.28;;;;;;;10.66;31.44;101413.03;4980315;28;20486;-89
2022/03/25 00:51:08;;;;;;;12.35;6.90;;;;;;;10.53;31.62;101406.34;4965829;28;20177;-87
2022/03/25 00:53:35;;;;;;;13.57;6.97;;;;;;;10.70;32.00;101401.19;4964825;28;20042;-90
2022/03/25 00:56:01;;;;;;;10.63;6.88;;;;;;;10.98;31.73;101402.09;4982796;28;20037;-87
2022/03/25 00:58:29;;;;;;;13.15;7.07;;;;;;;11.07;31.05;101403.06;4980702;28;20031;-89
2022/03/25 01:00:56;;;;;;;12.18;6.53;;;;;;;11.18;30.58;101405.53;4964158;28;20042;-88
2022/03/25 01:03:25;;;;;;;10.30;6.25;;;;;;;11.19;30.15;101405.41;4983954;28;20037;-90
2022/03/25 01:05:50;;;;;;;9.20;5.88;;;;;;;11.26;30.42;101405.66;4965883;28;20065;-88
2022/03/25 01:08:16;;;;;;;9.45;5.60;;;;;;;11.24;30.53;101407.59;4981176;28;20031;-89
2022/03/25 01:10:43;;;;;;;8.57;5.57;;;;;;;11.33;29.82;101402.25;4982081;28;20035;-90
2022/03/25 01:13:10;;;;;;;9.75;5.60;;;;;;;11.22;29.46;101401.63;4964474;28;20559;-89
2022/03/25 01:15:36;;;;;;;10.73;5.13;;;;;;;11.31;29.12;101404.25;4982671;28;20046;-91
2022/03/25 01:18:03;;;;;;;14.15;4.93;;;;;;;11.51;28.67;101405.00;4964144;28;20038;-89
2022/03/25 01:20:30;;;;;;;11.38;5.80;;;;;;;11.61;28.42;101400.47;4948479;28;20031;-91
2022/03/25 01:22:58;;;;;;;13.13;5.38;;;;;;;11.57;28.00;101399.09;4982458;28;20030;-91
2022/03/25 01:25:27;;;;;;;9.38;5.25;;;;;;;11.62;27.91;101404.81;4983148;28;20035;-88
2022/03/25 01:27:54;;;;;;;11.93;5.35;;;;;;;11.62;27.48;101402.16;4966141;28;20761;-87
2022/03/25 01:30:20;;;;;;;11.32;5.20;;;;;;;11.63;27.48;101395.88;4965770;28;20058;-89
2022/03/25 01:32:50;;;;;;;10.48;4.90;;;;;;;11.60;27.42;101395.34;4983238;28;20512;-88
2022/03/25 01:35:15;;;;;;;10.55;5.05;;;;;;;11.47;27.41;101397.50;4968158;28;20062;-89
2022/03/25 01:37:43;;;;;;;10.95;5.40;;;;;;;11.13;27.67;101390.06;4967710;28;20038;-90
2022/03/25 01:40:09;;;;;;;11.98;5.32;;;;;;;11.08;27.70;101384.34;4982985;28;20039;-88
2022/03/25 01:42:43;;;;;;;7.60;4.97;;;;;;;10.96;28.12;101387.31;4966280;28;20066;-89
2022/03/25 01:45:11;;;;;;;7.70;5.00;;;;;;;11.10;28.27;101381.56;4980471;28;20062;-88
2022/03/25 01:47:38;;;;;;;9.43;5.40;;;;;;;11.29;27.88;101382.31;4983518;28;20097;-89
2022/03/25 01:50:12;;;;;;;11.35;4.97;;;;;;;11.43;27.49;101388.97;4985342;28;20093;-89
2022/03/25 01:52:39;;;;;;;9.05;5.47;;;;;;;11.40;27.67;101386.63;4967211;28;20097;-88
2022/03/25 01:55:17;;;;;;;9.23;5.32;;;;;;;11.51;27.54;101378.44;4967097;28;20039;-90
2022/03/25 01:57:45;;;;;;;10.45;5.70;;;;;;;11.46;27.81;101380.72;4967550;28;20046;-91
2022/03/25 02:00:17;;;;;;;14.93;6.15;;;;;;;11.54;28.17;101383.47;4977465;28;20042;-88
2022/03/25 02:02:48;;;;;;;10.75;6.32;;;;;;;11.33;28.68;101385.53;4998940;28;20035;-90
2022/03/25 02:05:15;;;;;;;11.93;6.35;;;;;;;11.38;28.65;101385.91;4985000;28;20026;-89
2022/03/25 02:07:45;;;;;;;13.32;7.30;;;;;;;11.36;28.91;101378.13;4984763;28;20027;-92
2022/03/25 02:10:23;;;;;;;12.73;6.95;;;;;;;11.41;28.90;101370.53;4991072;28;20042;-88
2022/03/25 02:12:49;;;;;;;9.68;6.50;;;;;;;11.38;29.01;101362.88;4966514;28;20059;-87
2022/03/25 02:15:16;;;;;;;11.77;7.07;;;;;;;11.18;29.61;101371.88;4985117;28;20029;-89
2022/03/25 02:17:47;;;;;;;11.50;6.75;;;;;;;11.14;29.92;101374.97;4965380;28;20035;-89
2022/03/25 02:20:13;;;;;;;12.43;6.30;;;;;;;10.70;30.76;101369.38;4965357;28;20041;-87
2022/03/25 02:22:40;;;;;;;10.98;6.55;;;;;;;10.24;31.87;101375.38;4965733;28;20034;-90
2022/03/25 02:25:11;;;;;;;12.20;6.68;;;;;;;10.20;32.17;101368.72;4983912;28;20490;-89
2022/03/25 02:27:39;;;;;;;10.48;6.55;;;;;;;10.26;31.76;101362.84;4968588;28;20062;-88
2022/03/25 02:30:09;;;;;;;12.65;7.35;;;;;;;10.17;32.08;101373.44;4951805;28;20050;-89
2022/03/25 02:32:40;;;;;;;12.30;7.38;;;;;;;9.91;32.54;101367.78;4966621;28;20499;-89
2022/03/25 02:35:06;;;;;;;13.60;6.72;;;;;;;9.57;33.57;101369.97;4982135;28;20068;-87
2022/03/25 02:37:31;;;;;;;11.77;6.35;;;;;;;9.49;33.70;101361.84;4981892;28;20030;-88
2022/03/25 02:40:27;;;;;;;12.48;7.18;;;;;;;9.47;33.92;101374.38;4965526;28;20042;-88
2022/03/25 02:42:55;;;;;;;15.35;6.90;;;;;;;9.55;34.08;101363.94;4981625;28;20039;-88
2022/03/25 02:45:21;;;;;;;16.45;7.07;;;;;;;9.31;34.32;101359.00;4982322;28;20038;-88
2022/03/25 02:47:47;;;;;;;12.18;6.80;;;;;;;9.07;35.12;101368.22;4965901;28;20027;-89
2022/03/25 02:50:13;;;;;;;12.02;7.20;;;;;;;9.00;35.55;101372.34;4966550;28;20035;-90
2022/03/25 02:52:43;;;;;;;12.93;7.45;;;;;;;8.98;35.26;101367.19;4984232;28;20121;-88
2022/03/25 02:55:09;;;;;;;14.65;7.60;;;;;;;9.29;34.71;101365.41;4967483;28;20117;-88
2022/03/25 02:57:38;;;;;;;13.63;7.00;;;;;;;9.58;34.25;101368.16;4966412;28;20394;-91
2022/03/25 03:00:09;;;;;;;14.60;7.60;;;;;;;9.58;34.27;101368.97;4963824;28;20600;-91
2022/03/25 03:02:44;;;;;;;13.75;7.32;;;;;;;9.49;34.15;101367.13;4965689;28;20087;-91
2022/03/25 03:05:10;;;;;;;11.40;7.03;;;;;;;9.38;33.88;101361.13;4951455;28;20038;-89
2022/03/25 03:07:39;;;;;;;13.13;7.32;;;;;;;9.32;34.66;101368.63;5018133;23;20082;-90
2022/03/25 03:10:10;;;;;;;13.05;7.10;;;;;;;9.44;34.60;101363.22;4930392;29;20070;-90
2022/03/25 03:12:42;;;;;;;13.88;7.07;;;;;;;9.32;34.37;101357.19;4948462;29;20082;-88
2022/03/25 03:15:09;;;;;;;14.18;7.47;;;;;;;9.21;34.75;101363.41;4964511;29;20487;-87
2022/03/25 03:17:35;;;;;;;12.43;7.30;;;;;;;9.27;35.05;101359.41;4962214;29;20019;-89
2022/03/25 03:20:00;;;;;;;14.10;7.30;;;;;;;9.33;34.89;101366.81;4961336;29;20041;-90
2022/03/25 03:22:26;;;;;;;14.10;7.25;;;;;;;9.28;34.74;101363.72;4962665;29;20046;-88
2022/03/25 03:24:52;;;;;;;13.30;7.47;;;;;;;9.23;35.02;101368.56;4929973;29;20579;-87
2022/03/25 03:27:18;;;;;;;15.23;7.45;;;;;;;9.10;35.17;101371.44;4929776;29;20131;-84
2022/03/25 03:29:43;;;;;;;13.32;8.00;;;;;;;9.26;34.80;101377.09;4961249;29;20054;-84
2022/03/25 03:32:09;;;;;;;22.23;7.80;;;;;;;9.08;34.91;101372.56;4960381;29;20019;-87
2022/03/25 03:34:38;;;;;;;14.70;7.97;;;;;;;8.97;35.42;101377.91;4960327;29;20115;-86
2022/03/25 03:37:04;;;;;;;20.48;8.40;;;;;;;8.93;35.75;101372.03;4946548;29;20082;-86
2022/03/25 03:39:30;;;;;;;15.98;7.88;;;;;;;8.80;35.77;101382.00;4960474;29;20039;-88
2022/03/25 03:41:55;;;;;;;16.95;8.25;;;;;;;8.96;35.83;101384.16;4942764;29;20047;-85
2022/03/25 03:44:24;;;;;;;14.85;8.70;;;;;;;8.64;36.45;101379.81;4959153;29;20042;-89
2022/03/25 03:46:52;;;;;;;13.63;7.60;;;;;;;8.27;37.06;101381.16;4945194;29;20042;-86
2022/03/25 03:49:18;;;;;;;17.08;7.57;;;;;;;8.10;37.55;101379.88;4930326;29;20047;-89
2022/03/25 03:51:46;;;;;;;12.50;7.97;;;;;;;8.01;37.56;101375.38;4969195;29;20039;-85
2022/03/25 03:54:12;;;;;;;16.05;8.10;;;;;;;7.98;37.86;101378.25;4975398;29;20140;-84
2022/03/25 03:57:00;;;;;;;12.40;8.05;;;;;;;8.22;37.44;101378.88;4957658;29;20545;-86
2022/03/25 03:59:28;;;;;;;12.68;7.80;;;;;;;8.44;36.82;101385.91;4966073;29;20059;-87
2022/03/25 04:01:54;;;;;;;16.58;8.15;;;;;;;8.61;36.48;101387.16;4930813;29;20063;-88
2022/03/25 04:04:23;;;;;;;19.35;8.48;;;;;;;8.40;36.94;101381.84;4942421;29;20035;-87
2022/03/25 04:06:49;;;;;;;13.38;7.93;;;;;;;8.39;36.87;101389.88;4944736;29;20035;-87
2022/03/25 04:09:18;;;;;;;16.70;8.43;;;;;;;8.62;37.05;101384.38;4931325;29;20047;-88
2022/03/25 04:12:04;;;;;;;16.73;8.32;;;;;;;8.57;36.90;101378.63;4946416;29;20042;-88
2022/03/25 04:14:33;;;;;;;13.27;7.75;;;;;;;8.43;37.04;101373.66;4897735;29;20052;-86
2022/03/25 04:17:06;;;;;;;16.35;8.55;;;;;;;8.45;36.94;101378.81;4926359;29;20084;-89
2022/03/25 04:19:33;;;;;;;12.93;7.43;;;;;;;8.58;36.85;101375.03;4926939;29;20451;-89
2022/03/25 04:21:58;;;;;;;16.08;8.77;;;;;;;8.50;37.03;101377.47;4933993;29;20023;-85
2022/03/25 04:24:28;;;;;;;15.18;8.50;;;;;;;8.61;36.78;101374.78;4939050;29;20103;-87
2022/03/25 04:26:59;;;;;;;14.90;8.50;;;;;;;8.71;36.69;101380.97;4973828;28;20024;-89
2022/03/25 04:33:00;;;;;;;21.35;9.05;;;;;;;8.02;38.42;101376.22;4963156;28;20039;-87
2022/03/25 04:35:28;;;;;;;20.73;9.00;;;;;;;8.00;38.56;101378.13;4958134;28;20036;-89
2022/03/25 04:37:56;;;;;;;22.55;9.07;;;;;;;7.75;39.16;101379.28;4953267;29;20039;-87
2022/03/25 04:40:26;;;;;;;23.15;8.80;;;;;;;7.66;39.77;101386.09;4946367;29;20114;-90
2022/03/25 04:42:53;;;;;;;16.00;8.40;;;;;;;7.51;39.96;101382.06;4908161;29;20071;-87
2022/03/25 04:45:21;;;;;;;14.95;8.82;;;;;;;7.36;40.10;101377.97;4923439;29;20078;-88
2022/03/25 04:47:48;;;;;;;16.08;8.90;;;;;;;7.41;39.96;101383.75;4950188;28;20141;-88
2022/03/25 04:50:13;;;;;;;18.48;9.43;;;;;;;7.63;39.26;101385.50;4943958;28;20030;-93
2022/03/25 04:52:39;;;;;;;14.57;8.60;;;;;;;7.33;40.23;101383.50;4943549;29;20028;-88
2022/03/25 04:55:06;;;;;;;16.42;8.95;;;;;;;7.46;39.87;101384.22;4943141;29;20051;-89
2022/03/25 04:57:32;;;;;;;21.70;9.38;;;;;;;7.79;39.32;101392.06;4926796;29;20036;-86
2022/03/25 04:59:57;;;;;;;22.30;10.02;;;;;;;8.03;39.17;101388.41;4943027;29;20107;-87
2022/03/25 05:02:23;;;;;;;20.90;9.80;;;;;;;8.12;38.99;101393.78;4928341;29;20036;-87
2022/03/25 05:04:58;;;;;;;21.77;9.98;;;;;;;8.06;39.00;101404.00;4910508;29;20127;-88
2022/03/25 05:07:34;;;;;;;26.52;10.77;;;;;;;7.67;39.69;101398.34;4911459;29;20445;-88
2022/03/25 05:10:03;;;;;;;20.45;10.30;;;;;;;7.76;40.07;101391.47;4929372;29;20047;-90
2022/03/25 05:12:30;;;;;;;22.70;11.27;;;;;;;8.06;39.84;101394.28;4914656;29;20071;-89
2022/03/25 05:14:56;;;;;;;23.08;10.82;;;;;;;8.29;39.48;101403.00;4944401;29;20448;-87
2022/03/25 05:17:24;;;;;;;24.20;11.50;;;;;;;8.34;39.25;101398.19;4945789;29;20047;-89
2022/03/25 05:19:50;;;;;;;27.25;11.32;;;;;;;8.25;39.24;101405.03;4941908;29;20035;-89
2022/03/25 05:22:16;;;;;;;27.38;12.05;;;;;;;7.95;40.19;101399.63;4937252;29;20050;-89
2022/03/25 05:24:41;;;;;;;21.60;12.23;;;;;;;7.65;40.87;101407.34;4941367;29;20031;-87
2022/03/25 05:27:07;;;;;;;23.75;12.00;;;;;;;7.50;41.52;101404.09;4948128;29;20052;-85
2022/03/25 05:29:33;;;;;;;19.45;10.95;;;;;;;7.63;41.28;101412.72;4955901;29;20100;-85
2022/03/25 05:31:59;;;;;;;25.80;11.88;;;;;;;7.74;41.28;101415.38;4958967;29;20043;-88
2022/03/25 05:34:25;;;;;;;26.70;11.85;;;;;;;7.78;41.33;101423.88;4960752;28;20027;-84
2022/03/25 05:36:51;;;;;;;36.90;12.88;;;;;;;7.93;41.38;101424.44;4962474;28;20055;-82
2022/03/25 05:39:16;;;;;;;32.17;12.23;;;;;;;8.16;41.11;101424.25;4961584;28;20044;-85
2022/03/25 05:41:42;;;;;;;35.30;12.48;;;;;;;8.24;40.91;101428.94;4949639;29;20042;-81
2022/03/25 05:44:08;;;;;;;27.50;12.63;;;;;;;8.76;40.22;101442.19;4930090;29;20047;-83
2022/03/25 05:46:34;;;;;;;31.92;13.45;;;;;;;8.87;39.36;101443.09;4946142;29;20396;-81
2022/03/25 05:49:00;;;;;;;37.90;15.05;;;;;;;8.90;39.43;101440.19;4926686;29;20038;-83
2022/03/25 05:51:27;;;;;;;34.80;14.20;;;;;;;9.37;40.63;101439.66;4936239;29;20091;-80
2022/03/25 05:53:55;;;;;;;36.05;16.02;;;;;;;9.34;40.14;101443.41;4943242;29;20043;-85
2022/03/25 05:56:22;;;;;;;29.45;14.30;;;;;;;9.33;38.06;101440.88;4931393;29;20035;-79
2022/03/25 05:58:48;;;;;;;31.42;14.80;;;;;;;9.61;37.72;101442.81;4949001;29;20044;-84
2022/03/25 06:01:16;;;;;;;37.67;15.10;;;;;;;9.66;37.46;101445.06;4922443;29;20038;-86
2022/03/25 06:03:45;;;;;;;30.40;14.60;;;;;;;10.13;37.38;101440.88;4940829;29;20063;-83
2022/03/25 06:06:10;;;;;;;28.52;13.90;;;;;;;10.69;36.51;101436.63;4923976;29;20114;-83
2022/03/25 06:08:36;;;;;;;32.72;15.95;;;;;;;11.59;34.73;101444.94;4941251;29;20479;-84
2022/03/25 06:11:02;;;;;;;34.50;15.00;;;;;;;11.51;34.47;101452.78;4939510;29;20074;-82
2022/03/25 06:13:28;;;;;;;37.42;15.60;;;;;;;10.31;36.34;101442.75;4939005;29;20066;-82
2022/03/25 06:15:55;;;;;;;37.47;16.30;;;;;;;10.59;36.24;101449.03;4940366;29;20122;-79
2022/03/25 06:18:21;;;;;;;44.55;17.25;;;;;;;10.24;38.07;101446.09;4923454;29;20055;-84
2022/03/25 06:20:50;;;;;;;37.53;16.50;;;;;;;10.87;36.79;101450.81;4942578;29;20492;-80
2022/03/25 06:23:15;;;;;;;48.92;17.73;;;;;;;10.41;37.10;101456.00;4942184;29;20476;-81
2022/03/25 06:25:41;;;;;;;41.53;17.83;;;;;;;10.54;37.15;101456.56;4928057;29;20132;-85
2022/03/25 06:28:07;;;;;;;41.63;17.50;;;;;;;10.93;37.54;101456.56;4942864;29;20036;-81
2022/03/25 06:30:45;;;;;;;33.50;16.77;;;;;;;10.86;36.87;101465.09;4942272;29;20032;-82
2022/03/25 06:33:10;;;;;;;37.40;17.67;;;;;;;10.68;37.89;101464.09;4941327;29;20044;-83
2022/03/25 06:35:38;;;;;;;51.35;18.33;;;;;;;10.65;38.02;101464.38;4942360;29;20032;-82
2022/03/25 06:38:04;;;;;;;53.95;17.02;;;;;;;11.53;36.59;101461.44;4940305;29;20459;-85
2022/03/25 06:40:30;;;;;;;46.03;17.88;;;;;;;11.80;36.51;101477.41;4938708;29;20046;-83
2022/03/25 06:42:57;;;;;;;53.00;18.23;;;;;;;12.09;35.58;101469.31;4940959;29;20059;-81
2022/03/25 06:45:29;;;;;;;49.22;18.35;;;;;;;12.68;34.87;101473.25;4940833;29;20043;-82
2022/03/25 06:47:55;;;;;;;49.30;17.45;;;;;;;13.13;34.24;101475.78;4939748;29;20036;-83
2022/03/25 06:50:24;;;;;;;46.42;18.27;;;;;;;13.90;33.75;101470.41;4940515;29;20036;-85
2022/03/25 06:52:50;;;;;;;52.92;18.48;;;;;;;13.42;34.07;101476.34;4922095;29;20051;-82
2022/03/25 06:55:19;;;;;;;43.40;18.95;;;;;;;14.03;33.84;101476.13;4940313;29;20563;-83
2022/03/25 06:57:52;;;;;;;49.28;19.73;;;;;;;13.83;33.73;101478.22;4942940;29;20074;-85
2022/03/25 07:00:20;;;;;;;42.95;19.58;;;;;;;15.14;32.49;101482.84;4942466;29;20098;-83
2022/03/25 07:02:46;;;;;;;53.05;20.80;;;;;;;14.77;32.98;101486.84;4928377;29;20051;-83
2022/03/25 07:05:14;;;;;;;49.58;20.42;;;;;;;15.41;31.88;101487.81;4928926;29;20040;-82
2022/03/25 07:07:41;;;;;;;58.17;20.85;;;;;;;16.14;31.50;101491.09;4944505;29;20039;-84
2022/03/25 07:10:09;;;;;;;60.05;20.65;;;;;;;16.10;31.53;101494.28;4945067;29;20048;-84
2022/03/25 07:12:45;;;;;;;46.20;19.52;;;;;;;16.72;30.62;101493.28;4913631;29;20394;-82
2022/03/25 07:15:12;;;;;;;39.45;19.40;;;;;;;17.71;29.58;101505.63;4947341;29;20087;-82
2022/03/25 07:17:38;;;;;;;48.72;20.67;;;;;;;17.39;29.82;101504.09;4945456;29;20032;-83
2022/03/25 07:20:16;;;;;;;53.28;20.38;;;;;;;16.49;31.61;101492.41;4941331;29;20406;-84
2022/03/25 07:22:44;;;;;;;65.13;21.88;;;;;;;16.84;30.76;101494.53;4946622;29;20055;-82
2022/03/25 07:25:22;;;;;;;51.90;21.52;;;;;;;17.32;30.78;101503.16;4941171;29;20023;-83
2022/03/25 07:27:57;;;;;;;54.85;21.27;;;;;;;18.59;28.70;101501.00;4927594;29;20043;-84
2022/03/25 07:30:22;;;;;;;60.60;20.65;;;;;;;18.99;28.06;101503.03;4941874;29;20035;-85
2022/03/25 07:32:48;;;;;;;57.05;20.63;;;;;;;19.83;26.57;101508.44;4925209;29;20031;-83
2022/03/25 07:35:14;;;;;;;47.58;20.30;;;;;;;19.86;26.11;101506.19;4926135;29;20044;-85
2022/03/25 07:37:41;;;;;;;43.83;20.08;;;;;;;19.83;25.39;101505.75;4942827;29;20063;-87
2022/03/25 07:40:11;;;;;;;45.88;19.60;;;;;;;20.01;24.19;101503.38;4940255;29;20036;-81
2022/03/25 07:42:37;;;;;;;47.47;21.08;;;;;;;20.61;23.51;101500.69;4939300;29;20035;-83
2022/03/25 07:45:10;;;;;;;35.50;20.25;;;;;;;20.10;21.87;101507.56;4939446;29;20039;-83
2022/03/25 07:47:59;;;;;;;32.85;17.38;;;;;;;19.13;21.49;101503.16;4938874;29;20142;-81
2022/03/25 07:50:24;;;;;;;30.30;16.05;;;;;;;19.39;20.21;101503.38;4933174;29;20036;-81
2022/03/25 07:52:51;;;;;;;26.40;16.15;;;;;;;20.31;19.60;101501.25;4947366;29;20372;-82
2022/03/25 07:55:19;;;;;;;28.27;15.52;;;;;;;21.25;19.09;101513.66;4940964;29;20039;-81
2022/03/25 07:57:46;;;;;;;38.50;15.30;;;;;;;22.14;18.41;101520.16;4939424;29;20036;-83
2022/03/25 08:00:13;;;;;;;33.38;16.05;;;;;;;22.15;18.49;101520.97;4941925;29;20044;-83
2022/03/25 08:02:44;;;;;;;27.65;16.48;;;;;;;22.38;17.85;101510.50;4940023;29;20518;-85
2022/03/25 08:05:14;;;;;;;29.48;16.60;;;;;;;21.72;18.48;101522.53;4938262;29;20119;-84
2022/03/25 08:08:03;;;;;;;36.17;16.60;;;;;;;22.97;18.17;101515.56;4952704;23;20059;-84
2022/03/25 08:10:30;;;;;;;27.58;16.70;;;;;;;22.71;17.69;101518.44;4972384;28;20038;-83
2022/03/25 08:12:59;;;;;;;28.65;16.35;;;;;;;21.39;18.38;101520.72;4979057;28;20104;-82
2022/03/25 08:15:30;;;;;;;26.60;15.80;;;;;;;22.26;17.54;101525.72;4982228;28;20042;-87
2022/03/25 08:18:03;;;;;;;26.40;15.73;;;;;;;22.08;18.04;101529.09;4980258;28;20050;-84
2022/03/25 08:20:39;;;;;;;23.65;15.27;;;;;;;21.20;18.67;101524.25;4976670;28;20116;-81
2022/03/25 08:23:12;;;;;;;27.60;15.52;;;;;;;21.32;19.53;101516.34;4980762;28;20039;-83
2022/03/25 08:28:25;;;;;;;29.70;16.02;;;;;;;21.09;19.25;101519.44;4977790;28;20079;-82
2022/03/25 08:30:51;;;;;;;25.55;14.55;;;;;;;20.77;20.01;101517.53;4979259;28;20050;-82
2022/03/25 08:33:17;;;;;;;25.65;15.20;;;;;;;20.76;20.21;101514.00;4983006;28;20046;-81
2022/03/25 08:35:44;;;;;;;24.45;15.63;;;;;;;20.87;19.86;101521.50;4984464;28;20042;-84
2022/03/25 08:38:11;;;;;;;25.90;15.82;;;;;;;20.78;20.35;101517.31;4966882;28;20038;-86
2022/03/25 08:40:40;;;;;;;30.15;16.33;;;;;;;21.69;19.60;101523.78;4951739;28;20039;-84
2022/03/25 08:43:06;;;;;;;24.17;15.48;;;;;;;22.35;19.18;101518.19;4996356;28;20023;-83
2022/03/25 08:45:33;;;;;;;31.52;15.55;;;;;;;22.87;19.03;101517.91;4998454;28;20027;-82
2022/03/25 08:47:59;;;;;;;26.98;15.38;;;;;;;22.20;18.98;101523.88;5013534;28;20098;-83
2022/03/25 08:50:25;;;;;;;24.30;14.05;;;;;;;22.12;18.53;101518.72;5016538;28;20026;-82
2022/03/25 08:52:55;;;;;;;25.58;15.38;;;;;;;21.28;19.74;101523.22;4999380;28;20030;-84
2022/03/25 08:55:21;;;;;;;22.50;13.98;;;;;;;21.31;19.19;101522.81;4998033;28;20409;-83
2022/03/25 08:57:48;;;;;;;20.02;13.20;;;;;;;20.57;19.65;101528.25;4994340;28;20034;-85
2022/03/25 09:00:17;;;;;;;24.67;14.15;;;;;;;20.32;20.08;101513.66;4993628;28;20030;-82
2022/03/25 09:02:44;;;;;;;26.23;14.07;;;;;;;20.57;19.39;101518.31;4996975;28;20038;-82
2022/03/25 09:05:13;;;;;;;20.63;13.57;;;;;;;20.22;20.07;101521.28;4997972;28;20139;-83
2022/03/25 09:07:40;;;;;;;23.02;13.48;;;;;;;19.80;19.94;101522.28;4980379;28;20409;-84
2022/03/25 09:10:11;;;;;;;22.92;13.57;;;;;;;20.40;19.00;101521.56;4994672;28;20031;-84
2022/03/25 09:12:36;;;;;;;21.77;13.73;;;;;;;20.50;19.42;101525.56;4978209;28;20035;-84
2022/03/25 09:15:05;;;;;;;21.67;13.65;;;;;;;21.27;19.09;101521.56;4956797;28;20043;-85
2022/03/25 09:17:31;;;;;;;21.95;14.50;;;;;;;21.51;19.35;101529.00;4978555;28;20122;-85
2022/03/25 09:19:57;;;;;;;22.48;13.90;;;;;;;21.77;19.89;101534.38;4981288;28;20074;-83
2022/03/25 09:22:22;;;;;;;20.92;13.70;;;;;;;21.97;20.17;101529.78;4979208;28;20138;-82
2022/03/25 09:24:48;;;;;;;21.10;13.73;;;;;;;21.76;20.04;101531.88;4980309;28;20478;-84
2022/03/25 09:27:14;;;;;;;19.05;13.75;;;;;;;22.15;20.45;101529.91;4984427;28;20038;-83
2022/03/25 09:29:41;;;;;;;20.48;13.77;;;;;;;22.04;20.53;101532.47;4982812;28;20449;-83
2022/03/25 09:32:07;;;;;;;22.67;14.93;;;;;;;21.48;21.50;101524.84;4964757;28;20486;-82
2022/03/25 09:37:17;;;;;;;21.33;13.18;;;;;;;22.26;20.38;101527.59;4963423;28;20047;-81
2022/03/25 09:39:43;;;;;;;19.10;12.55;;;;;;;22.04;19.98;101519.78;4963073;28;20094;-81
2022/03/25 09:42:09;;;;;;;17.98;12.07;;;;;;;22.05;19.97;101526.84;4980258;28;20053;-81
2022/03/25 09:44:35;;;;;;;20.65;12.68;;;;;;;22.03;19.85;101520.84;4980723;28;20047;-81
2022/03/25 09:47:01;;;;;;;20.17;12.02;;;;;;;21.91;19.72;101506.31;4980327;28;20031;-81
2022/03/25 09:49:33;;;;;;;21.33;12.43;;;;;;;22.12;18.78;101516.84;4980423;28;20244;-84
2022/03/25 09:52:07;;;;;;;21.83;12.60;;;;;;;22.11;18.87;101515.19;4965615;28;20143;-81
2022/03/25 09:54:58;;;;;;;16.92;11.60;;;;;;;22.28;19.06;101510.13;4978335;28;20026;-86
2022/03/25 09:57:27;;;;;;;19.10;11.05;;;;;;;22.99;18.81;101507.25;4981244;28;20047;-86
2022/03/25 09:59:56;;;;;;;23.98;12.55;;;;;;;22.58;19.39;101507.69;4970259;28;20035;-85
2022/03/25 10:02:47;;;;;;;21.83;12.15;;;;;;;22.81;19.22;101501.75;4991977;28;20118;-85
2022/03/25 10:05:30;;;;;;;21.67;11.70;;;;;;;23.31;19.39;101494.47;4984001;28;20046;-85
2022/03/25 10:08:38;;;;;;;21.05;12.60;;;;;;;22.51;18.29;101496.91;4987320;28;20111;-86
2022/03/25 10:11:45;;;;;;;22.25;11.68;;;;;;;22.50;18.70;101503.38;4969955;28;20047;-88
2022/03/25 10:22:08;;;;;;;19.63;12.32;;;;;;;24.17;17.92;101485.25;4951284;28;20081;-84
2022/03/25 10:25:13;;;;;;;27.48;12.00;;;;;;;25.18;17.83;101484.41;4995773;28;20038;-85
2022/03/25 10:27:54;;;;;;;21.48;12.93;;;;;;;25.01;17.88;101486.16;4992333;28;20058;-85
2022/03/25 10:30:34;;;;;;;20.95;12.15;;;;;;;24.82;16.81;101480.00;4989979;28;20038;-87
2022/03/25 10:33:07;;;;;;;19.35;13.13;;;;;;;24.57;16.90;101480.13;4985154;28;20059;-85
2022/03/25 10:36:04;;;;;;;18.85;12.18;;;;;;;24.31;17.58;101469.66;4988789;28;20034;-87
2022/03/25 10:38:48;;;;;;;17.70;11.90;;;;;;;25.39;16.80;101480.28;4971627;28;20049;-85
2022/03/25 10:41:49;;;;;;;24.25;12.73;;;;;;;25.77;16.12;101479.81;4980133;28;20078;-84
2022/03/25 10:44:39;;;;;;;22.02;13.90;;;;;;;24.79;15.67;101483.13;4978780;28;20030;-84
2022/03/25 10:47:24;;;;;;;22.00;13.18;;;;;;;24.38;15.73;101478.53;4990352;28;20042;-87
2022/03/25 10:49:52;;;;;;;23.25;13.60;;;;;;;24.72;15.77;101474.28;4977305;28;20054;-86
2022/03/25 10:52:30;;;;;;;20.38;13.50;;;;;;;25.50;15.61;101479.47;4985770;23;20045;-85
2022/03/25 10:55:31;;;;;;;29.92;14.60;;;;;;;24.38;16.13;101475.00;4960843;29;20047;-85
2022/03/25 10:58:08;;;;;;;21.25;13.18;;;;;;;25.18;16.19;101473.56;4972550;29;20062;-87
2022/03/25 11:00:52;;;;;;;26.42;14.18;;;;;;;26.31;15.21;101470.34;4978764;28;20118;-85
2022/03/25 11:03:32;;;;;;;26.58;14.25;;;;;;;26.39;15.30;101467.22;4964853;28;20107;-87
2022/03/25 11:06:06;;;;;;;22.40;13.98;;;;;;;26.51;15.37;101470.72;4957702;28;20062;-82
2022/03/25 11:09:09;;;;;;;;;;;;;;;26.77;14.69;101475.53;4974689;28;20079;-85
2022/03/25 11:12:24;;;;;;;30.92;14.65;;;;;;;27.53;14.03;101468.63;4936156;29;19981;-85
2022/03/25 11:15:04;;;;;;;24.05;14.35;;;;;;;26.81;14.43;101465.88;4939024;28;20047;-86
2022/03/25 11:17:56;;;;;;;22.05;13.38;;;;;;;26.50;14.44;101447.31;4940594;28;20051;-86
2022/03/25 11:20:30;;;;;;;24.20;14.75;;;;;;;26.26;14.80;101453.94;4918076;29;20067;-83
2022/03/25 11:29:34;;;;;;;26.27;14.38;;;;;;;26.34;15.00;101442.69;3076927;23;20046;-86
2022/03/25 11:33:04;;;;;;;29.92;17.08;;;;;;;26.43;14.99;101430.31;4972834;28;20027;-86
2022/03/25 11:35:51;;;;;;;29.52;18.30;;;;;;;27.31;15.03;101432.34;4920248;29;20028;-85
2022/03/25 11:38:34;;;;;;;31.52;15.38;;;;;;;26.35;15.36;101433.47;4957777;29;20031;-85
2022/03/25 11:45:16;;;;;;;27.97;15.87;;;;;;;28.15;13.85;101437.28;4971044;29;20043;-83
2022/03/25 11:48:13;;;;;;;24.42;14.07;;;;;;;28.65;13.85;101431.50;4961116;29;20050;-82
2022/03/25 11:54:58;;;;;;;26.45;15.55;;;;;;;27.56;14.29;101419.94;4973396;29;20039;-86
2022/03/25 11:57:58;;;;;;;23.00;14.60;;;;;;;27.80;13.83;101415.06;4973390;28;20047;-83
2022/03/25 12:00:48;;;;;;;21.70;13.00;;;;;;;28.31;13.54;101410.16;4961570;29;20030;-83
2022/03/25 12:03:15;;;;;;;25.02;13.38;;;;;;;27.26;14.15;101413.19;4967024;29;20098;-82
2022/03/25 12:06:08;;;;;;;20.55;13.80;;;;;;;25.88;17.43;101398.31;4968846;28;20043;-85